sensor_id;sensor_type;location;lat;lon;timestamp;P1;durP1;ratioP1;P2;durP2;ratioP2
67191;SDS011;54120;53.504;49.426;2022-07-06T00:02:06;8.02;;;5.05;;
67191;SDS011;54120;53.504;49.426;2022-07-06T00:04:32;7.63;;;5.05;;
67191;SDS011;54120;53.504;49.426;2022-07-06T00:06:58;12.63;;;5.50;;
67191;SDS011;54120;53.504;49.426;2022-07-06T00:09:24;8.05;;;5.05;;
67191;SDS011;54120;53.504;49.426;2022-07-06T00:11:51;7.25;;;5.45;;
67191;SDS011;54120;53.504;49.426;2022-07-06T00:14:17;10.10;;;5.13;;
67191;SDS011;54120;53.504;49.426;2022-07-06T00:16:43;10.65;;;5.25;;
67191;SDS011;54120;53.504;49.426;2022-07-06T00:19:09;13.95;;;5.25;;
67191;SDS011;54120;53.504;49.426;2022-07-06T00:21:35;7.35;;;5.13;;
67191;SDS011;54120;53.504;49.426;2022-07-06T00:24:01;10.10;;;5.40;;
67191;SDS011;54120;53.504;49.426;2022-07-06T00:26:28;11.73;;;5.90;;
67191;SDS011;54120;53.504;49.426;2022-07-06T00:28:54;9.27;;;5.75;;
67191;SDS011;54120;53.504;49.426;2022-07-06T00:31:20;10.77;;;5.55;;
67191;SDS011;54120;53.504;49.426;2022-07-06T00:33:46;8.07;;;5.57;;
67191;SDS011;54120;53.504;49.426;2022-07-06T00:36:12;9.32;;;5.82;;
67191;SDS011;54120;53.504;49.426;2022-07-06T00:38:39;13.23;;;5.50;;
67191;SDS011;54120;53.504;49.426;2022-07-06T00:41:05;9.25;;;5.45;;
67191;SDS011;54120;53.504;49.426;2022-07-06T00:43:50;6.97;;;5.30;;
67191;SDS011;54120;53.504;49.426;2022-07-06T00:46:25;8.75;;;5.55;;
67191;SDS011;54120;53.504;49.426;2022-07-06T00:48:54;9.05;;;5.35;;
67191;SDS011;54120;53.504;49.426;2022-07-06T00:51:21;12.27;;;5.75;;
67191;SDS011;54120;53.504;49.426;2022-07-06T00:53:50;11.80;;;5.47;;
67191;SDS011;54120;53.504;49.426;2022-07-06T00:56:17;13.23;;;5.65;;
67191;SDS011;54120;53.504;49.426;2022-07-06T00:58:44;9.32;;;6.10;;
67191;SDS011;54120;53.504;49.426;2022-07-06T01:01:10;9.65;;;4.88;;
67191;SDS011;54120;53.504;49.426;2022-07-06T01:03:37;10.02;;;5.95;;
67191;SDS011;54120;53.504;49.426;2022-07-06T01:06:03;12.75;;;5.50;;
67191;SDS011;54120;53.504;49.426;2022-07-06T01:08:29;9.60;;;5.20;;
67191;SDS011;54120;53.504;49.426;2022-07-06T01:10:55;9.75;;;4.82;;
67191;SDS011;54120;53.504;49.426;2022-07-06T01:13:21;9.73;;;6.05;;
67191;SDS011;54120;53.504;49.426;2022-07-06T01:15:48;9.15;;;5.90;;
67191;SDS011;54120;53.504;49.426;2022-07-06T01:18:14;10.30;;;4.88;;
67191;SDS011;54120;53.504;49.426;2022-07-06T01:20:41;9.50;;;4.55;;
67191;SDS011;54120;53.504;49.426;2022-07-06T01:23:07;6.38;;;4.18;;
67191;SDS011;54120;53.504;49.426;2022-07-06T01:25:33;7.80;;;4.00;;
67191;SDS011;54120;53.504;49.426;2022-07-06T01:27:59;12.60;;;4.07;;
67191;SDS011;54120;53.504;49.426;2022-07-06T01:30:25;7.82;;;3.67;;
67191;SDS011;54120;53.504;49.426;2022-07-06T01:32:51;8.45;;;4.38;;
67191;SDS011;54120;53.504;49.426;2022-07-06T01:35:17;8.73;;;4.47;;
67191;SDS011;54120;53.504;49.426;2022-07-06T01:37:44;5.57;;;4.13;;
67191;SDS011;54120;53.504;49.426;2022-07-06T01:40:11;7.35;;;3.95;;
67191;SDS011;54120;53.504;49.426;2022-07-06T01:42:38;9.50;;;3.88;;
67191;SDS011;54120;53.504;49.426;2022-07-06T01:45:05;6.15;;;3.45;;
67191;SDS011;54120;53.504;49.426;2022-07-06T01:47:31;8.63;;;5.13;;
67191;SDS011;54120;53.504;49.426;2022-07-06T01:49:58;6.75;;;3.67;;
67191;SDS011;54120;53.504;49.426;2022-07-06T01:52:30;9.60;;;4.97;;
67191;SDS011;54120;53.504;49.426;2022-07-06T01:54:56;7.65;;;3.65;;
67191;SDS011;54120;53.504;49.426;2022-07-06T01:57:23;8.32;;;4.18;;
67191;SDS011;54120;53.504;49.426;2022-07-06T01:59:49;6.05;;;4.40;;
67191;SDS011;54120;53.504;49.426;2022-07-06T02:02:15;6.70;;;4.32;;
67191;SDS011;54120;53.504;49.426;2022-07-06T02:04:42;14.63;;;8.52;;
67191;SDS011;54120;53.504;49.426;2022-07-06T02:07:08;16.95;;;9.52;;
67191;SDS011;54120;53.504;49.426;2022-07-06T02:09:35;36.65;;;24.65;;
67191;SDS011;54120;53.504;49.426;2022-07-06T02:12:01;14.18;;;5.22;;
67191;SDS011;54120;53.504;49.426;2022-07-06T02:14:27;9.98;;;4.35;;
67191;SDS011;54120;53.504;49.426;2022-07-06T02:16:53;10.57;;;3.78;;
67191;SDS011;54120;53.504;49.426;2022-07-06T02:19:19;17.75;;;11.77;;
67191;SDS011;54120;53.504;49.426;2022-07-06T02:21:46;9.70;;;5.80;;
67191;SDS011;54120;53.504;49.426;2022-07-06T02:24:12;6.95;;;3.50;;
67191;SDS011;54120;53.504;49.426;2022-07-06T02:26:38;10.95;;;4.32;;
67191;SDS011;54120;53.504;49.426;2022-07-06T02:29:04;6.65;;;3.58;;
67191;SDS011;54120;53.504;49.426;2022-07-06T02:31:30;2.85;;;2.47;;
67191;SDS011;54120;53.504;49.426;2022-07-06T02:33:56;7.20;;;3.38;;
67191;SDS011;54120;53.504;49.426;2022-07-06T02:36:22;4.18;;;3.17;;
67191;SDS011;54120;53.504;49.426;2022-07-06T02:38:48;6.63;;;2.78;;
67191;SDS011;54120;53.504;49.426;2022-07-06T02:41:15;5.60;;;2.13;;
67191;SDS011;54120;53.504;49.426;2022-07-06T02:43:41;5.50;;;2.33;;
67191;SDS011;54120;53.504;49.426;2022-07-06T02:46:07;6.20;;;2.53;;
67191;SDS011;54120;53.504;49.426;2022-07-06T02:48:33;2.05;;;1.83;;
67191;SDS011;54120;53.504;49.426;2022-07-06T02:50:59;4.68;;;2.10;;
67191;SDS011;54120;53.504;49.426;2022-07-06T02:53:26;10.10;;;3.38;;
67191;SDS011;54120;53.504;49.426;2022-07-06T02:55:52;9.77;;;2.20;;
67191;SDS011;54120;53.504;49.426;2022-07-06T02:58:18;5.55;;;2.15;;
67191;SDS011;54120;53.504;49.426;2022-07-06T03:00:44;7.20;;;1.90;;
67191;SDS011;54120;53.504;49.426;2022-07-06T03:03:10;9.93;;;2.70;;
67191;SDS011;54120;53.504;49.426;2022-07-06T03:05:37;9.00;;;1.90;;
67191;SDS011;54120;53.504;49.426;2022-07-06T03:08:03;4.75;;;1.85;;
67191;SDS011;54120;53.504;49.426;2022-07-06T03:10:29;6.22;;;2.63;;
67191;SDS011;54120;53.504;49.426;2022-07-06T03:12:55;4.30;;;1.90;;
67191;SDS011;54120;53.504;49.426;2022-07-06T03:15:21;6.78;;;1.80;;
67191;SDS011;54120;53.504;49.426;2022-07-06T03:17:48;6.07;;;1.88;;
67191;SDS011;54120;53.504;49.426;2022-07-06T03:20:14;4.63;;;1.70;;
67191;SDS011;54120;53.504;49.426;2022-07-06T03:22:40;2.97;;;1.60;;
67191;SDS011;54120;53.504;49.426;2022-07-06T03:25:06;5.88;;;1.70;;
67191;SDS011;54120;53.504;49.426;2022-07-06T03:27:33;6.72;;;1.98;;
67191;SDS011;54120;53.504;49.426;2022-07-06T03:30:01;5.05;;;2.15;;
67191;SDS011;54120;53.504;49.426;2022-07-06T03:32:28;3.53;;;1.50;;
67191;SDS011;54120;53.504;49.426;2022-07-06T03:34:57;4.28;;;1.20;;
67191;SDS011;54120;53.504;49.426;2022-07-06T03:37:23;1.17;;;1.08;;
67191;SDS011;54120;53.504;49.426;2022-07-06T03:39:49;6.07;;;1.48;;
67191;SDS011;54120;53.504;49.426;2022-07-06T03:42:15;6.30;;;1.65;;
67191;SDS011;54120;53.504;49.426;2022-07-06T03:44:42;5.18;;;1.98;;
67191;SDS011;54120;53.504;49.426;2022-07-06T03:47:08;5.63;;;1.65;;
67191;SDS011;54120;53.504;49.426;2022-07-06T03:49:34;2.50;;;1.30;;
67191;SDS011;54120;53.504;49.426;2022-07-06T03:52:00;2.58;;;1.35;;
67191;SDS011;54120;53.504;49.426;2022-07-06T03:54:26;2.88;;;1.55;;
67191;SDS011;54120;53.504;49.426;2022-07-06T03:56:52;3.47;;;1.60;;
67191;SDS011;54120;53.504;49.426;2022-07-06T03:59:18;7.38;;;1.35;;
67191;SDS011;54120;53.504;49.426;2022-07-06T04:01:44;2.80;;;1.33;;
67191;SDS011;54120;53.504;49.426;2022-07-06T04:04:11;1.38;;;1.27;;
67191;SDS011;54120;53.504;49.426;2022-07-06T04:06:37;5.82;;;1.50;;
67191;SDS011;54120;53.504;49.426;2022-07-06T04:09:03;2.63;;;1.20;;
67191;SDS011;54120;53.504;49.426;2022-07-06T04:11:30;4.35;;;1.38;;
67191;SDS011;54120;53.504;49.426;2022-07-06T04:13:56;1.65;;;1.10;;
67191;SDS011;54120;53.504;49.426;2022-07-06T04:16:22;2.80;;;1.23;;
67191;SDS011;54120;53.504;49.426;2022-07-06T04:18:48;1.25;;;1.02;;
67191;SDS011;54120;53.504;49.426;2022-07-06T04:21:14;7.35;;;1.45;;
67191;SDS011;54120;53.504;49.426;2022-07-06T04:23:40;2.55;;;1.10;;
67191;SDS011;54120;53.504;49.426;2022-07-06T04:26:07;4.07;;;1.30;;
67191;SDS011;54120;53.504;49.426;2022-07-06T04:28:33;4.15;;;1.33;;
67191;SDS011;54120;53.504;49.426;2022-07-06T04:30:59;7.00;;;1.25;;
67191;SDS011;54120;53.504;49.426;2022-07-06T04:33:25;3.50;;;1.58;;
67191;SDS011;54120;53.504;49.426;2022-07-06T04:35:51;3.70;;;1.95;;
67191;SDS011;54120;53.504;49.426;2022-07-06T04:38:18;5.47;;;1.05;;
67191;SDS011;54120;53.504;49.426;2022-07-06T04:40:44;3.00;;;2.33;;
67191;SDS011;54120;53.504;49.426;2022-07-06T04:43:12;3.75;;;1.55;;
67191;SDS011;54120;53.504;49.426;2022-07-06T04:45:39;7.93;;;1.35;;
67191;SDS011;54120;53.504;49.426;2022-07-06T04:48:05;6.30;;;1.98;;
67191;SDS011;54120;53.504;49.426;2022-07-06T04:50:33;3.30;;;1.20;;
67191;SDS011;54120;53.504;49.426;2022-07-06T04:52:59;8.13;;;2.00;;
67191;SDS011;54120;53.504;49.426;2022-07-06T04:55:25;3.60;;;1.17;;
67191;SDS011;54120;53.504;49.426;2022-07-06T04:57:52;2.88;;;1.10;;
67191;SDS011;54120;53.504;49.426;2022-07-06T05:00:18;4.57;;;1.70;;
67191;SDS011;54120;53.504;49.426;2022-07-06T05:02:44;5.93;;;1.60;;
67191;SDS011;54120;53.504;49.426;2022-07-06T05:05:10;4.40;;;0.80;;
67191;SDS011;54120;53.504;49.426;2022-07-06T05:07:36;2.53;;;1.10;;
67191;SDS011;54120;53.504;49.426;2022-07-06T05:10:08;5.43;;;1.20;;
67191;SDS011;54120;53.504;49.426;2022-07-06T05:12:36;2.85;;;1.23;;
67191;SDS011;54120;53.504;49.426;2022-07-06T05:15:03;8.43;;;1.00;;
67191;SDS011;54120;53.504;49.426;2022-07-06T05:17:30;6.10;;;1.00;;
67191;SDS011;54120;53.504;49.426;2022-07-06T05:19:56;1.98;;;1.10;;
67191;SDS011;54120;53.504;49.426;2022-07-06T05:22:22;3.40;;;1.08;;
67191;SDS011;54120;53.504;49.426;2022-07-06T05:24:50;8.55;;;2.88;;
67191;SDS011;54120;53.504;49.426;2022-07-06T05:27:16;3.30;;;1.30;;
67191;SDS011;54120;53.504;49.426;2022-07-06T05:29:43;3.28;;;0.88;;
67191;SDS011;54120;53.504;49.426;2022-07-06T05:32:09;2.72;;;1.00;;
67191;SDS011;54120;53.504;49.426;2022-07-06T05:34:35;3.47;;;1.38;;
67191;SDS011;54120;53.504;49.426;2022-07-06T05:37:03;3.08;;;0.88;;
67191;SDS011;54120;53.504;49.426;2022-07-06T05:39:29;3.53;;;0.90;;
67191;SDS011;54120;53.504;49.426;2022-07-06T05:41:55;1.52;;;1.02;;
67191;SDS011;54120;53.504;49.426;2022-07-06T05:44:21;1.50;;;0.98;;
67191;SDS011;54120;53.504;49.426;2022-07-06T05:46:48;1.80;;;0.82;;
67191;SDS011;54120;53.504;49.426;2022-07-06T05:49:14;1.77;;;1.00;;
67191;SDS011;54120;53.504;49.426;2022-07-06T05:51:58;2.30;;;0.93;;
67191;SDS011;54120;53.504;49.426;2022-07-06T05:54:24;10.57;;;2.60;;
67191;SDS011;54120;53.504;49.426;2022-07-06T05:56:50;1.77;;;0.80;;
67191;SDS011;54120;53.504;49.426;2022-07-06T05:59:17;1.67;;;1.00;;
67191;SDS011;54120;53.504;49.426;2022-07-06T06:01:43;2.13;;;0.88;;
67191;SDS011;54120;53.504;49.426;2022-07-06T06:04:09;2.47;;;1.17;;
67191;SDS011;54120;53.504;49.426;2022-07-06T06:06:35;4.00;;;0.82;;
67191;SDS011;54120;53.504;49.426;2022-07-06T06:09:01;4.53;;;0.80;;
67191;SDS011;54120;53.504;49.426;2022-07-06T06:11:27;3.45;;;0.90;;
67191;SDS011;54120;53.504;49.426;2022-07-06T06:13:54;2.28;;;0.85;;
67191;SDS011;54120;53.504;49.426;2022-07-06T06:16:20;5.57;;;0.93;;
67191;SDS011;54120;53.504;49.426;2022-07-06T06:18:46;8.98;;;1.15;;
67191;SDS011;54120;53.504;49.426;2022-07-06T06:21:12;7.38;;;0.70;;
67191;SDS011;54120;53.504;49.426;2022-07-06T06:23:38;5.00;;;0.90;;
67191;SDS011;54120;53.504;49.426;2022-07-06T06:26:04;3.53;;;0.85;;
67191;SDS011;54120;53.504;49.426;2022-07-06T06:28:30;2.78;;;0.88;;
67191;SDS011;54120;53.504;49.426;2022-07-06T06:30:57;2.33;;;1.10;;
67191;SDS011;54120;53.504;49.426;2022-07-06T06:33:23;2.22;;;0.90;;
67191;SDS011;54120;53.504;49.426;2022-07-06T06:35:52;6.97;;;0.98;;
67191;SDS011;54120;53.504;49.426;2022-07-06T06:38:20;4.03;;;0.80;;
67191;SDS011;54120;53.504;49.426;2022-07-06T06:40:51;7.07;;;1.20;;
67191;SDS011;54120;53.504;49.426;2022-07-06T06:43:18;1.65;;;0.90;;
67191;SDS011;54120;53.504;49.426;2022-07-06T06:45:44;1.98;;;0.70;;
67191;SDS011;54120;53.504;49.426;2022-07-06T06:48:11;2.95;;;0.88;;
67191;SDS011;54120;53.504;49.426;2022-07-06T06:50:38;3.80;;;0.90;;
67191;SDS011;54120;53.504;49.426;2022-07-06T06:53:04;3.70;;;0.75;;
67191;SDS011;54120;53.504;49.426;2022-07-06T06:55:30;1.65;;;0.70;;
67191;SDS011;54120;53.504;49.426;2022-07-06T06:57:56;2.17;;;0.80;;
67191;SDS011;54120;53.504;49.426;2022-07-06T07:00:22;4.45;;;0.80;;
67191;SDS011;54120;53.504;49.426;2022-07-06T07:02:49;5.45;;;0.90;;
67191;SDS011;54120;53.504;49.426;2022-07-06T07:05:15;3.10;;;0.73;;
67191;SDS011;54120;53.504;49.426;2022-07-06T07:07:41;1.20;;;0.73;;
67191;SDS011;54120;53.504;49.426;2022-07-06T07:10:08;3.15;;;0.90;;
67191;SDS011;54120;53.504;49.426;2022-07-06T07:12:41;5.43;;;0.93;;
67191;SDS011;54120;53.504;49.426;2022-07-06T07:15:12;5.07;;;1.23;;
67191;SDS011;54120;53.504;49.426;2022-07-06T07:17:39;4.18;;;1.10;;
67191;SDS011;54120;53.504;49.426;2022-07-06T07:20:06;4.63;;;0.82;;
67191;SDS011;54120;53.504;49.426;2022-07-06T07:22:32;2.78;;;0.70;;
67191;SDS011;54120;53.504;49.426;2022-07-06T07:24:59;8.10;;;1.00;;
67191;SDS011;54120;53.504;49.426;2022-07-06T07:27:25;4.35;;;0.90;;
67191;SDS011;54120;53.504;49.426;2022-07-06T07:29:51;2.75;;;0.90;;
67191;SDS011;54120;53.504;49.426;2022-07-06T07:32:19;2.05;;;0.70;;
67191;SDS011;54120;53.504;49.426;2022-07-06T07:34:45;3.55;;;0.75;;
67191;SDS011;54120;53.504;49.426;2022-07-06T07:37:12;3.95;;;0.90;;
67191;SDS011;54120;53.504;49.426;2022-07-06T07:39:38;4.80;;;0.95;;
67191;SDS011;54120;53.504;49.426;2022-07-06T07:42:04;5.13;;;0.80;;
67191;SDS011;54120;53.504;49.426;2022-07-06T07:44:30;1.63;;;0.90;;
67191;SDS011;54120;53.504;49.426;2022-07-06T07:46:56;1.40;;;1.20;;
67191;SDS011;54120;53.504;49.426;2022-07-06T07:49:22;2.13;;;0.70;;
67191;SDS011;54120;53.504;49.426;2022-07-06T07:51:49;5.22;;;0.82;;
67191;SDS011;54120;53.504;49.426;2022-07-06T07:54:15;7.45;;;1.10;;
67191;SDS011;54120;53.504;49.426;2022-07-06T07:56:42;4.80;;;1.33;;
67191;SDS011;54120;53.504;49.426;2022-07-06T07:59:08;9.30;;;1.00;;
67191;SDS011;54120;53.504;49.426;2022-07-06T08:01:35;5.47;;;1.10;;
67191;SDS011;54120;53.504;49.426;2022-07-06T08:04:01;2.50;;;0.88;;
67191;SDS011;54120;53.504;49.426;2022-07-06T08:06:27;2.92;;;0.80;;
67191;SDS011;54120;53.504;49.426;2022-07-06T08:08:54;2.47;;;0.80;;
67191;SDS011;54120;53.504;49.426;2022-07-06T08:11:20;3.58;;;0.90;;
67191;SDS011;54120;53.504;49.426;2022-07-06T08:13:47;3.28;;;0.98;;
67191;SDS011;54120;53.504;49.426;2022-07-06T08:16:13;2.47;;;1.00;;
67191;SDS011;54120;53.504;49.426;2022-07-06T08:18:39;3.25;;;1.08;;
67191;SDS011;54120;53.504;49.426;2022-07-06T08:21:05;2.60;;;0.90;;
67191;SDS011;54120;53.504;49.426;2022-07-06T08:23:33;5.07;;;1.00;;
67191;SDS011;54120;53.504;49.426;2022-07-06T08:26:02;3.75;;;0.90;;
67191;SDS011;54120;53.504;49.426;2022-07-06T08:28:28;2.35;;;1.00;;
67191;SDS011;54120;53.504;49.426;2022-07-06T08:30:55;2.30;;;0.80;;
67191;SDS011;54120;53.504;49.426;2022-07-06T08:33:22;1.55;;;0.90;;
67191;SDS011;54120;53.504;49.426;2022-07-06T08:35:48;1.85;;;0.82;;
67191;SDS011;54120;53.504;49.426;2022-07-06T08:38:14;6.15;;;1.20;;
67191;SDS011;54120;53.504;49.426;2022-07-06T08:40:40;3.30;;;1.70;;
67191;SDS011;54120;53.504;49.426;2022-07-06T08:43:08;3.45;;;1.45;;
67191;SDS011;54120;53.504;49.426;2022-07-06T08:45:34;2.60;;;1.00;;
67191;SDS011;54120;53.504;49.426;2022-07-06T08:48:03;5.88;;;1.10;;
67191;SDS011;54120;53.504;49.426;2022-07-06T08:50:31;4.03;;;1.10;;
67191;SDS011;54120;53.504;49.426;2022-07-06T08:53:01;1.77;;;1.00;;
67191;SDS011;54120;53.504;49.426;2022-07-06T08:55:30;2.33;;;1.00;;
67191;SDS011;54120;53.504;49.426;2022-07-06T08:57:58;3.42;;;1.13;;
67191;SDS011;54120;53.504;49.426;2022-07-06T09:00:24;6.72;;;1.10;;
67191;SDS011;54120;53.504;49.426;2022-07-06T09:02:51;1.30;;;1.20;;
67191;SDS011;54120;53.504;49.426;2022-07-06T09:05:21;2.47;;;1.08;;
67191;SDS011;54120;53.504;49.426;2022-07-06T09:07:48;2.45;;;1.30;;
67191;SDS011;54120;53.504;49.426;2022-07-06T09:10:20;10.23;;;1.10;;
67191;SDS011;54120;53.504;49.426;2022-07-06T09:15:16;2.80;;;1.00;;
67191;SDS011;54120;53.504;49.426;2022-07-06T09:17:42;2.67;;;0.98;;
67191;SDS011;54120;53.504;49.426;2022-07-06T09:20:10;2.80;;;0.95;;
67191;SDS011;54120;53.504;49.426;2022-07-06T09:22:38;3.42;;;1.10;;
67191;SDS011;54120;53.504;49.426;2022-07-06T09:25:06;3.28;;;0.98;;
67191;SDS011;54120;53.504;49.426;2022-07-06T09:27:44;1.75;;;1.20;;
67191;SDS011;54120;53.504;49.426;2022-07-06T09:30:20;3.35;;;0.88;;
67191;SDS011;54120;53.504;49.426;2022-07-06T09:32:53;2.60;;;1.10;;
67191;SDS011;54120;53.504;49.426;2022-07-06T09:35:21;4.25;;;1.10;;
67191;SDS011;54120;53.504;49.426;2022-07-06T09:38:08;2.50;;;1.30;;
67191;SDS011;54120;53.504;49.426;2022-07-06T09:40:40;5.18;;;0.90;;
67191;SDS011;54120;53.504;49.426;2022-07-06T09:43:09;5.07;;;0.98;;
67191;SDS011;54120;53.504;49.426;2022-07-06T09:45:46;1.92;;;0.95;;
67191;SDS011;54120;53.504;49.426;2022-07-06T09:48:15;1.75;;;0.90;;
67191;SDS011;54120;53.504;49.426;2022-07-06T09:50:49;2.05;;;1.38;;
67191;SDS011;54120;53.504;49.426;2022-07-06T09:53:18;1.98;;;1.10;;
67191;SDS011;54120;53.504;49.426;2022-07-06T09:55:47;4.38;;;1.70;;
67191;SDS011;54120;53.504;49.426;2022-07-06T09:58:14;4.15;;;1.20;;
67191;SDS011;54120;53.504;49.426;2022-07-06T10:00:42;4.22;;;1.20;;
67191;SDS011;54120;53.504;49.426;2022-07-06T10:03:08;1.27;;;0.85;;
67191;SDS011;54120;53.504;49.426;2022-07-06T10:05:36;2.42;;;1.15;;
67191;SDS011;54120;53.504;49.426;2022-07-06T10:08:03;5.82;;;1.05;;
67191;SDS011;54120;53.504;49.426;2022-07-06T10:10:31;3.13;;;1.10;;
67191;SDS011;54120;53.504;49.426;2022-07-06T10:12:58;2.10;;;1.30;;
67191;SDS011;54120;53.504;49.426;2022-07-06T10:15:26;5.95;;;1.00;;
67191;SDS011;54120;53.504;49.426;2022-07-06T10:17:54;7.65;;;1.20;;
67191;SDS011;54120;53.504;49.426;2022-07-06T10:20:21;6.40;;;1.20;;
67191;SDS011;54120;53.504;49.426;2022-07-06T10:22:48;2.90;;;1.15;;
67191;SDS011;54120;53.504;49.426;2022-07-06T10:25:16;5.68;;;1.10;;
67191;SDS011;54120;53.504;49.426;2022-07-06T10:27:43;5.90;;;1.15;;
67191;SDS011;54120;53.504;49.426;2022-07-06T10:30:11;3.50;;;1.20;;
67191;SDS011;54120;53.504;49.426;2022-07-06T10:32:38;6.82;;;1.55;;
67191;SDS011;54120;53.504;49.426;2022-07-06T10:35:06;5.45;;;1.00;;
67191;SDS011;54120;53.504;49.426;2022-07-06T10:37:33;5.18;;;1.20;;
67191;SDS011;54120;53.504;49.426;2022-07-06T10:39:59;3.58;;;1.10;;
67191;SDS011;54120;53.504;49.426;2022-07-06T10:42:45;2.63;;;1.10;;
67191;SDS011;54120;53.504;49.426;2022-07-06T10:45:49;2.63;;;1.08;;
67191;SDS011;54120;53.504;49.426;2022-07-06T10:50:39;2.10;;;1.10;;
67191;SDS011;54120;53.504;49.426;2022-07-06T10:53:10;2.10;;;1.00;;
67191;SDS011;54120;53.504;49.426;2022-07-06T10:55:47;2.83;;;1.30;;
67191;SDS011;54120;53.504;49.426;2022-07-06T10:58:34;4.93;;;1.27;;
67191;SDS011;54120;53.504;49.426;2022-07-06T11:01:00;2.53;;;1.30;;
67191;SDS011;54120;53.504;49.426;2022-07-06T11:06:16;6.38;;;1.17;;
67191;SDS011;54120;53.504;49.426;2022-07-06T11:08:44;1.65;;;1.00;;
67191;SDS011;54120;53.504;49.426;2022-07-06T11:16:13;2.92;;;1.27;;
67191;SDS011;54120;53.504;49.426;2022-07-06T11:18:42;7.88;;;1.05;;
67191;SDS011;54120;53.504;49.426;2022-07-06T11:21:19;3.15;;;1.05;;
67191;SDS011;54120;53.504;49.426;2022-07-06T11:23:48;4.75;;;1.02;;
67191;SDS011;54120;53.504;49.426;2022-07-06T11:26:16;5.97;;;1.40;;
67191;SDS011;54120;53.504;49.426;2022-07-06T11:28:46;3.97;;;1.00;;
67191;SDS011;54120;53.504;49.426;2022-07-06T11:31:13;1.73;;;1.13;;
67191;SDS011;54120;53.504;49.426;2022-07-06T11:33:40;2.90;;;1.30;;
67191;SDS011;54120;53.504;49.426;2022-07-06T11:36:13;1.75;;;1.10;;
67191;SDS011;54120;53.504;49.426;2022-07-06T11:38:41;3.20;;;0.93;;
67191;SDS011;54120;53.504;49.426;2022-07-06T11:41:08;1.10;;;1.00;;
67191;SDS011;54120;53.504;49.426;2022-07-06T11:43:35;2.30;;;1.15;;
67191;SDS011;54120;53.504;49.426;2022-07-06T11:46:03;5.20;;;1.45;;
67191;SDS011;54120;53.504;49.426;2022-07-06T11:48:29;4.50;;;1.02;;
67191;SDS011;54120;53.504;49.426;2022-07-06T11:51:02;6.63;;;1.25;;
67191;SDS011;54120;53.504;49.426;2022-07-06T11:53:29;2.22;;;0.98;;
67191;SDS011;54120;53.504;49.426;2022-07-06T11:55:55;3.13;;;1.00;;
67191;SDS011;54120;53.504;49.426;2022-07-06T11:58:28;2.58;;;1.00;;
67191;SDS011;54120;53.504;49.426;2022-07-06T12:01:03;4.70;;;1.00;;
67191;SDS011;54120;53.504;49.426;2022-07-06T12:03:31;1.50;;;0.98;;
67191;SDS011;54120;53.504;49.426;2022-07-06T12:05:58;2.15;;;1.17;;
67191;SDS011;54120;53.504;49.426;2022-07-06T12:08:24;3.20;;;1.10;;
67191;SDS011;54120;53.504;49.426;2022-07-06T12:10:50;2.90;;;1.10;;
67191;SDS011;54120;53.504;49.426;2022-07-06T12:13:18;5.13;;;1.23;;
67191;SDS011;54120;53.504;49.426;2022-07-06T12:15:44;6.05;;;1.75;;
67191;SDS011;54120;53.504;49.426;2022-07-06T12:18:10;2.28;;;1.00;;
67191;SDS011;54120;53.504;49.426;2022-07-06T12:20:37;3.15;;;0.90;;
67191;SDS011;54120;53.504;49.426;2022-07-06T12:23:03;4.28;;;1.30;;
67191;SDS011;54120;53.504;49.426;2022-07-06T12:25:34;18.20;;;1.60;;
67191;SDS011;54120;53.504;49.426;2022-07-06T12:28:01;7.25;;;1.40;;
67191;SDS011;54120;53.504;49.426;2022-07-06T12:30:28;5.35;;;1.35;;
67191;SDS011;54120;53.504;49.426;2022-07-06T12:33:14;5.28;;;1.10;;
67191;SDS011;54120;53.504;49.426;2022-07-06T12:35:41;1.65;;;1.20;;
67191;SDS011;54120;53.504;49.426;2022-07-06T12:38:08;5.93;;;1.15;;
67191;SDS011;54120;53.504;49.426;2022-07-06T12:40:35;5.10;;;1.40;;
67191;SDS011;54120;53.504;49.426;2022-07-06T12:43:02;3.78;;;1.17;;
67191;SDS011;54120;53.504;49.426;2022-07-06T12:45:29;2.67;;;1.02;;
67191;SDS011;54120;53.504;49.426;2022-07-06T12:48:00;5.10;;;1.35;;
67191;SDS011;54120;53.504;49.426;2022-07-06T12:50:31;2.20;;;1.30;;
67191;SDS011;54120;53.504;49.426;2022-07-06T12:52:59;1.52;;;1.30;;
67191;SDS011;54120;53.504;49.426;2022-07-06T12:55:26;1.63;;;1.48;;
67191;SDS011;54120;53.504;49.426;2022-07-06T12:57:54;2.47;;;1.05;;
67191;SDS011;54120;53.504;49.426;2022-07-06T13:00:21;2.67;;;1.15;;
67191;SDS011;54120;53.504;49.426;2022-07-06T13:02:49;6.57;;;1.20;;
67191;SDS011;54120;53.504;49.426;2022-07-06T13:05:26;1.80;;;1.00;;
67191;SDS011;54120;53.504;49.426;2022-07-06T13:07:53;2.88;;;1.20;;
67191;SDS011;54120;53.504;49.426;2022-07-06T13:10:21;3.65;;;1.30;;
67191;SDS011;54120;53.504;49.426;2022-07-06T13:12:48;2.03;;;1.52;;
67191;SDS011;54120;53.504;49.426;2022-07-06T13:15:15;2.70;;;1.20;;
67191;SDS011;54120;53.504;49.426;2022-07-06T13:17:42;3.72;;;1.25;;
67191;SDS011;54120;53.504;49.426;2022-07-06T13:20:10;5.43;;;1.40;;
67191;SDS011;54120;53.504;49.426;2022-07-06T13:22:38;4.40;;;1.30;;
67191;SDS011;54120;53.504;49.426;2022-07-06T13:25:04;1.42;;;1.20;;
67191;SDS011;54120;53.504;49.426;2022-07-06T13:27:31;6.00;;;1.20;;
67191;SDS011;54120;53.504;49.426;2022-07-06T13:29:58;10.10;;;4.65;;
67191;SDS011;54120;53.504;49.426;2022-07-06T13:32:24;7.55;;;2.00;;
67191;SDS011;54120;53.504;49.426;2022-07-06T13:34:50;1.70;;;1.60;;
67191;SDS011;54120;53.504;49.426;2022-07-06T13:37:17;4.78;;;2.13;;
67191;SDS011;54120;53.504;49.426;2022-07-06T13:39:45;6.38;;;2.22;;
67191;SDS011;54120;53.504;49.426;2022-07-06T13:42:11;10.35;;;1.52;;
67191;SDS011;54120;53.504;49.426;2022-07-06T13:44:37;2.80;;;1.85;;
67191;SDS011;54120;53.504;49.426;2022-07-06T13:47:04;5.00;;;1.85;;
67191;SDS011;54120;53.504;49.426;2022-07-06T13:49:30;1.08;;;0.98;;
67191;SDS011;54120;53.504;49.426;2022-07-06T13:51:56;2.13;;;1.80;;
67191;SDS011;54120;53.504;49.426;2022-07-06T13:54:29;2.03;;;1.20;;
67191;SDS011;54120;53.504;49.426;2022-07-06T13:56:56;2.15;;;1.00;;
67191;SDS011;54120;53.504;49.426;2022-07-06T13:59:22;2.10;;;1.35;;
67191;SDS011;54120;53.504;49.426;2022-07-06T14:01:48;2.53;;;1.77;;
67191;SDS011;54120;53.504;49.426;2022-07-06T14:04:14;1.33;;;1.00;;
67191;SDS011;54120;53.504;49.426;2022-07-06T14:06:40;6.15;;;2.53;;
67191;SDS011;54120;53.504;49.426;2022-07-06T14:09:07;3.22;;;1.55;;
67191;SDS011;54120;53.504;49.426;2022-07-06T14:11:33;2.00;;;1.05;;
67191;SDS011;54120;53.504;49.426;2022-07-06T14:13:59;1.65;;;1.55;;
67191;SDS011;54120;53.504;49.426;2022-07-06T14:16:26;4.43;;;1.30;;
67191;SDS011;54120;53.504;49.426;2022-07-06T14:18:52;2.35;;;1.33;;
67191;SDS011;54120;53.504;49.426;2022-07-06T14:21:18;8.45;;;1.40;;
67191;SDS011;54120;53.504;49.426;2022-07-06T14:23:44;7.43;;;2.38;;
67191;SDS011;54120;53.504;49.426;2022-07-06T14:26:10;2.50;;;1.60;;
67191;SDS011;54120;53.504;49.426;2022-07-06T14:28:36;3.08;;;1.30;;
67191;SDS011;54120;53.504;49.426;2022-07-06T14:31:03;1.38;;;1.20;;
67191;SDS011;54120;53.504;49.426;2022-07-06T14:33:29;5.68;;;1.25;;
67191;SDS011;54120;53.504;49.426;2022-07-06T14:35:55;3.83;;;1.30;;
67191;SDS011;54120;53.504;49.426;2022-07-06T14:38:22;4.10;;;1.60;;
67191;SDS011;54120;53.504;49.426;2022-07-06T14:40:49;2.30;;;1.60;;
67191;SDS011;54120;53.504;49.426;2022-07-06T14:43:15;3.72;;;1.30;;
67191;SDS011;54120;53.504;49.426;2022-07-06T14:45:43;5.32;;;2.20;;
67191;SDS011;54120;53.504;49.426;2022-07-06T14:48:10;3.80;;;2.80;;